sensor_id;sensor_type;location;lat;lon;timestamp;P1;durP1;ratioP1;P2;durP2;ratioP2
6973;SDS011;3527;52.376;8.990;2024-02-26T00:00:38;6.00;;;4.27;;
6973;SDS011;3527;52.376;8.990;2024-02-26T00:03:05;5.40;;;4.30;;
6973;SDS011;3527;52.376;8.990;2024-02-26T00:05:32;5.13;;;3.90;;
6973;SDS011;3527;52.376;8.990;2024-02-26T00:07:59;5.00;;;4.13;;
6973;SDS011;3527;52.376;8.990;2024-02-26T00:10:30;4.93;;;4.00;;
6973;SDS011;3527;52.376;8.990;2024-02-26T00:12:57;5.63;;;4.43;;
6973;SDS011;3527;52.376;8.990;2024-02-26T00:15:24;7.53;;;4.80;;
6973;SDS011;3527;52.376;8.990;2024-02-26T00:17:51;6.47;;;4.97;;
6973;SDS011;3527;52.376;8.990;2024-02-26T00:20:18;8.80;;;4.83;;
6973;SDS011;3527;52.376;8.990;2024-02-26T00:22:45;9.07;;;4.70;;
6973;SDS011;3527;52.376;8.990;2024-02-26T00:25:11;7.67;;;4.57;;
6973;SDS011;3527;52.376;8.990;2024-02-26T00:27:39;7.57;;;4.27;;
6973;SDS011;3527;52.376;8.990;2024-02-26T00:30:08;4.57;;;3.77;;
6973;SDS011;3527;52.376;8.990;2024-02-26T00:32:35;8.27;;;4.40;;
6973;SDS011;3527;52.376;8.990;2024-02-26T00:35:02;6.57;;;4.60;;
6973;SDS011;3527;52.376;8.990;2024-02-26T00:37:28;5.63;;;4.17;;
6973;SDS011;3527;52.376;8.990;2024-02-26T00:39:55;6.00;;;3.87;;
6973;SDS011;3527;52.376;8.990;2024-02-26T00:42:22;6.13;;;4.40;;
6973;SDS011;3527;52.376;8.990;2024-02-26T00:44:49;4.57;;;3.90;;
6973;SDS011;3527;52.376;8.990;2024-02-26T00:47:16;5.10;;;3.63;;
6973;SDS011;3527;52.376;8.990;2024-02-26T00:49:43;5.23;;;3.53;;
6973;SDS011;3527;52.376;8.990;2024-02-26T00:52:09;6.27;;;4.03;;
6973;SDS011;3527;52.376;8.990;2024-02-26T00:54:36;4.83;;;4.07;;
6973;SDS011;3527;52.376;8.990;2024-02-26T00:57:02;5.83;;;4.17;;
6973;SDS011;3527;52.376;8.990;2024-02-26T00:59:29;5.90;;;4.07;;
6973;SDS011;3527;52.376;8.990;2024-02-26T01:01:56;6.40;;;3.80;;
6973;SDS011;3527;52.376;8.990;2024-02-26T01:04:22;4.70;;;4.07;;
6973;SDS011;3527;52.376;8.990;2024-02-26T01:06:49;5.47;;;4.00;;
6973;SDS011;3527;52.376;8.990;2024-02-26T01:09:16;6.63;;;4.30;;
6973;SDS011;3527;52.376;8.990;2024-02-26T01:11:44;5.07;;;3.80;;
6973;SDS011;3527;52.376;8.990;2024-02-26T01:14:11;5.00;;;3.80;;
6973;SDS011;3527;52.376;8.990;2024-02-26T01:16:38;8.57;;;4.27;;
6973;SDS011;3527;52.376;8.990;2024-02-26T01:19:04;6.00;;;4.50;;
6973;SDS011;3527;52.376;8.990;2024-02-26T01:21:31;7.67;;;4.67;;
6973;SDS011;3527;52.376;8.990;2024-02-26T01:23:58;6.17;;;4.43;;
6973;SDS011;3527;52.376;8.990;2024-02-26T01:26:25;6.80;;;4.43;;
6973;SDS011;3527;52.376;8.990;2024-02-26T01:28:51;9.17;;;4.30;;
6973;SDS011;3527;52.376;8.990;2024-02-26T01:31:18;5.00;;;4.50;;
6973;SDS011;3527;52.376;8.990;2024-02-26T01:33:45;6.87;;;4.53;;
6973;SDS011;3527;52.376;8.990;2024-02-26T01:36:12;5.83;;;4.60;;
6973;SDS011;3527;52.376;8.990;2024-02-26T01:38:38;7.37;;;4.97;;
6973;SDS011;3527;52.376;8.990;2024-02-26T01:41:05;7.90;;;5.37;;
6973;SDS011;3527;52.376;8.990;2024-02-26T01:43:32;7.77;;;5.40;;
6973;SDS011;3527;52.376;8.990;2024-02-26T01:45:59;6.83;;;5.10;;
6973;SDS011;3527;52.376;8.990;2024-02-26T01:48:26;7.00;;;5.27;;
6973;SDS011;3527;52.376;8.990;2024-02-26T01:50:53;7.07;;;5.43;;
6973;SDS011;3527;52.376;8.990;2024-02-26T01:53:19;7.47;;;5.30;;
6973;SDS011;3527;52.376;8.990;2024-02-26T01:55:46;8.60;;;5.60;;
6973;SDS011;3527;52.376;8.990;2024-02-26T01:58:13;11.33;;;6.20;;
6973;SDS011;3527;52.376;8.990;2024-02-26T02:00:40;8.43;;;5.97;;
6973;SDS011;3527;52.376;8.990;2024-02-26T02:03:07;7.60;;;5.73;;
6973;SDS011;3527;52.376;8.990;2024-02-26T02:05:33;8.33;;;6.17;;
6973;SDS011;3527;52.376;8.990;2024-02-26T02:08:01;7.20;;;6.03;;
6973;SDS011;3527;52.376;8.990;2024-02-26T02:10:30;10.07;;;6.43;;
6973;SDS011;3527;52.376;8.990;2024-02-26T02:12:57;7.33;;;5.30;;
6973;SDS011;3527;52.376;8.990;2024-02-26T02:15:23;12.17;;;6.20;;
6973;SDS011;3527;52.376;8.990;2024-02-26T02:17:50;9.10;;;6.67;;
6973;SDS011;3527;52.376;8.990;2024-02-26T02:20:17;9.33;;;6.90;;
6973;SDS011;3527;52.376;8.990;2024-02-26T02:22:45;11.70;;;6.67;;
6973;SDS011;3527;52.376;8.990;2024-02-26T02:25:12;8.50;;;6.57;;
6973;SDS011;3527;52.376;8.990;2024-02-26T02:27:39;8.43;;;6.60;;
6973;SDS011;3527;52.376;8.990;2024-02-26T02:30:06;11.27;;;6.63;;
6973;SDS011;3527;52.376;8.990;2024-02-26T02:32:33;9.30;;;6.70;;
6973;SDS011;3527;52.376;8.990;2024-02-26T02:35:00;7.13;;;5.90;;
6973;SDS011;3527;52.376;8.990;2024-02-26T02:37:27;9.17;;;6.60;;
6973;SDS011;3527;52.376;8.990;2024-02-26T02:39:54;8.20;;;6.50;;
6973;SDS011;3527;52.376;8.990;2024-02-26T02:42:21;9.50;;;6.47;;
6973;SDS011;3527;52.376;8.990;2024-02-26T02:44:48;9.37;;;6.57;;
6973;SDS011;3527;52.376;8.990;2024-02-26T02:47:14;9.50;;;6.63;;
6973;SDS011;3527;52.376;8.990;2024-02-26T02:49:41;9.17;;;6.50;;
6973;SDS011;3527;52.376;8.990;2024-02-26T02:52:08;8.57;;;6.40;;
6973;SDS011;3527;52.376;8.990;2024-02-26T02:54:35;9.80;;;7.20;;
6973;SDS011;3527;52.376;8.990;2024-02-26T02:57:03;9.93;;;6.57;;
6973;SDS011;3527;52.376;8.990;2024-02-26T02:59:30;7.53;;;5.50;;
6973;SDS011;3527;52.376;8.990;2024-02-26T03:01:56;7.90;;;6.30;;
6973;SDS011;3527;52.376;8.990;2024-02-26T03:04:23;9.47;;;6.53;;
6973;SDS011;3527;52.376;8.990;2024-02-26T03:06:50;9.97;;;6.90;;
6973;SDS011;3527;52.376;8.990;2024-02-26T03:09:17;9.83;;;7.20;;
6973;SDS011;3527;52.376;8.990;2024-02-26T03:11:44;10.00;;;6.73;;
6973;SDS011;3527;52.376;8.990;2024-02-26T03:14:10;10.50;;;7.10;;
6973;SDS011;3527;52.376;8.990;2024-02-26T03:16:37;9.17;;;6.97;;
6973;SDS011;3527;52.376;8.990;2024-02-26T03:19:04;8.93;;;7.20;;
6973;SDS011;3527;52.376;8.990;2024-02-26T03:21:31;10.63;;;7.00;;
6973;SDS011;3527;52.376;8.990;2024-02-26T03:23:57;8.73;;;6.90;;
6973;SDS011;3527;52.376;8.990;2024-02-26T03:26:24;9.30;;;7.37;;
6973;SDS011;3527;52.376;8.990;2024-02-26T03:28:51;10.40;;;7.00;;
6973;SDS011;3527;52.376;8.990;2024-02-26T03:31:18;10.47;;;6.97;;
6973;SDS011;3527;52.376;8.990;2024-02-26T03:33:44;11.47;;;7.30;;
6973;SDS011;3527;52.376;8.990;2024-02-26T03:36:11;8.70;;;6.57;;
6973;SDS011;3527;52.376;8.990;2024-02-26T03:38:38;7.93;;;6.73;;
6973;SDS011;3527;52.376;8.990;2024-02-26T03:41:05;11.57;;;7.70;;
6973;SDS011;3527;52.376;8.990;2024-02-26T03:43:32;10.07;;;7.10;;
6973;SDS011;3527;52.376;8.990;2024-02-26T03:45:58;11.63;;;7.23;;
6973;SDS011;3527;52.376;8.990;2024-02-26T03:48:25;11.30;;;7.30;;
6973;SDS011;3527;52.376;8.990;2024-02-26T03:50:52;9.37;;;6.67;;
6973;SDS011;3527;52.376;8.990;2024-02-26T03:53:19;11.93;;;7.30;;
6973;SDS011;3527;52.376;8.990;2024-02-26T03:55:46;10.87;;;7.60;;
6973;SDS011;3527;52.376;8.990;2024-02-26T03:58:12;10.93;;;7.57;;
6973;SDS011;3527;52.376;8.990;2024-02-26T04:00:39;11.10;;;7.30;;
6973;SDS011;3527;52.376;8.990;2024-02-26T04:03:06;10.17;;;6.77;;
6973;SDS011;3527;52.376;8.990;2024-02-26T04:05:33;9.63;;;7.10;;
6973;SDS011;3527;52.376;8.990;2024-02-26T04:07:59;9.10;;;7.53;;
6973;SDS011;3527;52.376;8.990;2024-02-26T04:10:26;10.40;;;7.10;;
6973;SDS011;3527;52.376;8.990;2024-02-26T04:12:53;9.90;;;7.03;;
6973;SDS011;3527;52.376;8.990;2024-02-26T04:15:39;12.30;;;8.27;;
6973;SDS011;3527;52.376;8.990;2024-02-26T04:18:07;12.60;;;7.50;;
6973;SDS011;3527;52.376;8.990;2024-02-26T04:20:36;11.10;;;7.67;;
6973;SDS011;3527;52.376;8.990;2024-02-26T04:23:23;11.83;;;8.10;;
6973;SDS011;3527;52.376;8.990;2024-02-26T04:26:08;13.47;;;7.03;;
6973;SDS011;3527;52.376;8.990;2024-02-26T04:28:55;9.27;;;7.17;;
6973;SDS011;3527;52.376;8.990;2024-02-26T04:31:41;11.60;;;7.13;;
6973;SDS011;3527;52.376;8.990;2024-02-26T04:34:09;10.57;;;7.03;;
6973;SDS011;3527;52.376;8.990;2024-02-26T04:36:59;10.77;;;7.30;;
6973;SDS011;3527;52.376;8.990;2024-02-26T04:39:46;10.37;;;7.00;;
6973;SDS011;3527;52.376;8.990;2024-02-26T04:42:36;11.47;;;7.40;;
6973;SDS011;3527;52.376;8.990;2024-02-26T04:45:11;12.10;;;7.40;;
6973;SDS011;3527;52.376;8.990;2024-02-26T04:47:38;12.13;;;6.97;;
6973;SDS011;3527;52.376;8.990;2024-02-26T04:50:05;9.00;;;6.80;;
6973;SDS011;3527;52.376;8.990;2024-02-26T04:52:32;9.30;;;6.70;;
6973;SDS011;3527;52.376;8.990;2024-02-26T04:54:58;9.20;;;6.20;;
6973;SDS011;3527;52.376;8.990;2024-02-26T04:57:26;9.77;;;6.77;;
6973;SDS011;3527;52.376;8.990;2024-02-26T04:59:53;11.40;;;7.27;;
6973;SDS011;3527;52.376;8.990;2024-02-26T05:02:20;9.57;;;6.80;;
6973;SDS011;3527;52.376;8.990;2024-02-26T05:04:47;10.97;;;6.67;;
6973;SDS011;3527;52.376;8.990;2024-02-26T05:07:13;10.13;;;6.87;;
6973;SDS011;3527;52.376;8.990;2024-02-26T05:09:40;10.77;;;6.50;;
6973;SDS011;3527;52.376;8.990;2024-02-26T05:12:09;8.57;;;6.40;;
6973;SDS011;3527;52.376;8.990;2024-02-26T05:14:35;8.27;;;5.83;;
6973;SDS011;3527;52.376;8.990;2024-02-26T05:17:02;9.47;;;5.23;;
6973;SDS011;3527;52.376;8.990;2024-02-26T05:19:29;6.57;;;4.53;;
6973;SDS011;3527;52.376;8.990;2024-02-26T05:21:57;8.40;;;5.23;;
6973;SDS011;3527;52.376;8.990;2024-02-26T05:24:24;7.63;;;5.00;;
6973;SDS011;3527;52.376;8.990;2024-02-26T05:26:51;7.60;;;4.73;;
6973;SDS011;3527;52.376;8.990;2024-02-26T05:29:17;6.90;;;5.13;;
6973;SDS011;3527;52.376;8.990;2024-02-26T05:31:44;5.57;;;4.50;;
6973;SDS011;3527;52.376;8.990;2024-02-26T05:34:11;8.50;;;4.50;;
6973;SDS011;3527;52.376;8.990;2024-02-26T05:36:38;6.93;;;3.80;;
6973;SDS011;3527;52.376;8.990;2024-02-26T05:39:05;5.80;;;4.47;;
6973;SDS011;3527;52.376;8.990;2024-02-26T05:41:32;6.80;;;4.13;;
6973;SDS011;3527;52.376;8.990;2024-02-26T05:43:59;7.10;;;4.27;;
6973;SDS011;3527;52.376;8.990;2024-02-26T05:46:25;6.00;;;3.93;;
6973;SDS011;3527;52.376;8.990;2024-02-26T05:48:53;5.83;;;4.00;;
6973;SDS011;3527;52.376;8.990;2024-02-26T05:51:20;5.90;;;4.10;;
6973;SDS011;3527;52.376;8.990;2024-02-26T05:53:47;7.30;;;3.93;;
6973;SDS011;3527;52.376;8.990;2024-02-26T05:56:21;9.00;;;4.57;;
6973;SDS011;3527;52.376;8.990;2024-02-26T05:58:48;7.60;;;5.03;;
6973;SDS011;3527;52.376;8.990;2024-02-26T06:01:17;5.83;;;4.33;;
6973;SDS011;3527;52.376;8.990;2024-02-26T06:03:44;5.03;;;3.90;;
6973;SDS011;3527;52.376;8.990;2024-02-26T06:06:11;5.60;;;4.07;;
6973;SDS011;3527;52.376;8.990;2024-02-26T06:08:38;4.67;;;3.57;;
6973;SDS011;3527;52.376;8.990;2024-02-26T06:11:08;5.73;;;4.07;;
6973;SDS011;3527;52.376;8.990;2024-02-26T06:13:35;5.17;;;3.87;;
6973;SDS011;3527;52.376;8.990;2024-02-26T06:16:02;4.70;;;3.60;;
6973;SDS011;3527;52.376;8.990;2024-02-26T06:18:28;5.93;;;3.40;;
6973;SDS011;3527;52.376;8.990;2024-02-26T06:20:55;5.03;;;3.60;;
6973;SDS011;3527;52.376;8.990;2024-02-26T06:23:22;3.97;;;3.40;;
6973;SDS011;3527;52.376;8.990;2024-02-26T06:25:49;4.83;;;3.67;;
6973;SDS011;3527;52.376;8.990;2024-02-26T06:28:15;6.23;;;4.10;;
6973;SDS011;3527;52.376;8.990;2024-02-26T06:30:42;4.70;;;3.83;;
6973;SDS011;3527;52.376;8.990;2024-02-26T06:33:09;5.47;;;4.03;;
6973;SDS011;3527;52.376;8.990;2024-02-26T06:35:37;5.70;;;3.57;;
6973;SDS011;3527;52.376;8.990;2024-02-26T06:38:04;4.67;;;3.93;;
6973;SDS011;3527;52.376;8.990;2024-02-26T06:40:30;7.43;;;3.90;;
6973;SDS011;3527;52.376;8.990;2024-02-26T06:42:57;4.40;;;3.30;;
6973;SDS011;3527;52.376;8.990;2024-02-26T06:45:24;5.43;;;3.67;;
6973;SDS011;3527;52.376;8.990;2024-02-26T06:47:50;6.50;;;4.10;;
6973;SDS011;3527;52.376;8.990;2024-02-26T06:50:17;5.70;;;3.93;;
6973;SDS011;3527;52.376;8.990;2024-02-26T06:52:45;5.07;;;4.13;;
6973;SDS011;3527;52.376;8.990;2024-02-26T06:55:14;4.30;;;3.37;;
6973;SDS011;3527;52.376;8.990;2024-02-26T06:57:41;4.80;;;3.90;;
6973;SDS011;3527;52.376;8.990;2024-02-26T07:00:08;5.67;;;4.07;;
6973;SDS011;3527;52.376;8.990;2024-02-26T07:02:35;6.90;;;4.07;;
6973;SDS011;3527;52.376;8.990;2024-02-26T07:05:05;5.53;;;4.10;;
6973;SDS011;3527;52.376;8.990;2024-02-26T07:07:32;5.73;;;3.90;;
6973;SDS011;3527;52.376;8.990;2024-02-26T07:09:59;6.43;;;4.07;;
6973;SDS011;3527;52.376;8.990;2024-02-26T07:12:26;5.53;;;3.67;;
6973;SDS011;3527;52.376;8.990;2024-02-26T07:14:53;5.77;;;3.67;;
6973;SDS011;3527;52.376;8.990;2024-02-26T07:17:20;7.10;;;3.63;;
6973;SDS011;3527;52.376;8.990;2024-02-26T07:19:46;5.50;;;3.90;;
6973;SDS011;3527;52.376;8.990;2024-02-26T07:22:13;4.83;;;3.77;;
6973;SDS011;3527;52.376;8.990;2024-02-26T07:24:41;4.23;;;3.60;;
6973;SDS011;3527;52.376;8.990;2024-02-26T07:27:08;5.90;;;3.47;;
6973;SDS011;3527;52.376;8.990;2024-02-26T07:29:35;5.53;;;3.30;;
6973;SDS011;3527;52.376;8.990;2024-02-26T07:32:01;6.53;;;3.23;;
6973;SDS011;3527;52.376;8.990;2024-02-26T07:34:28;4.07;;;3.40;;
6973;SDS011;3527;52.376;8.990;2024-02-26T07:36:56;3.87;;;3.23;;
6973;SDS011;3527;52.376;8.990;2024-02-26T07:39:23;4.77;;;3.80;;
6973;SDS011;3527;52.376;8.990;2024-02-26T07:41:50;4.90;;;3.53;;
6973;SDS011;3527;52.376;8.990;2024-02-26T07:44:19;6.07;;;4.00;;
6973;SDS011;3527;52.376;8.990;2024-02-26T07:46:47;4.53;;;3.40;;
6973;SDS011;3527;52.376;8.990;2024-02-26T07:49:13;4.10;;;3.50;;
6973;SDS011;3527;52.376;8.990;2024-02-26T07:51:40;6.03;;;3.90;;
6973;SDS011;3527;52.376;8.990;2024-02-26T07:54:07;4.00;;;3.37;;
6973;SDS011;3527;52.376;8.990;2024-02-26T07:56:34;4.60;;;3.77;;
6973;SDS011;3527;52.376;8.990;2024-02-26T07:59:01;5.63;;;3.63;;
6973;SDS011;3527;52.376;8.990;2024-02-26T08:01:28;4.23;;;3.50;;
6973;SDS011;3527;52.376;8.990;2024-02-26T08:03:54;4.83;;;3.83;;
6973;SDS011;3527;52.376;8.990;2024-02-26T08:06:22;4.77;;;3.70;;
6973;SDS011;3527;52.376;8.990;2024-02-26T08:08:49;7.20;;;3.80;;
6973;SDS011;3527;52.376;8.990;2024-02-26T08:11:15;4.13;;;3.23;;
6973;SDS011;3527;52.376;8.990;2024-02-26T08:13:42;4.00;;;3.37;;
6973;SDS011;3527;52.376;8.990;2024-02-26T08:16:09;5.73;;;3.53;;
6973;SDS011;3527;52.376;8.990;2024-02-26T08:18:36;4.17;;;3.33;;
6973;SDS011;3527;52.376;8.990;2024-02-26T08:21:02;4.93;;;3.63;;
6973;SDS011;3527;52.376;8.990;2024-02-26T08:23:30;6.07;;;3.60;;
6973;SDS011;3527;52.376;8.990;2024-02-26T08:25:57;4.90;;;3.37;;
6973;SDS011;3527;52.376;8.990;2024-02-26T08:28:24;4.07;;;3.03;;
6973;SDS011;3527;52.376;8.990;2024-02-26T08:30:51;4.73;;;3.60;;
6973;SDS011;3527;52.376;8.990;2024-02-26T08:33:18;4.27;;;3.40;;
6973;SDS011;3527;52.376;8.990;2024-02-26T08:35:45;5.50;;;3.30;;
6973;SDS011;3527;52.376;8.990;2024-02-26T08:38:11;5.63;;;3.40;;
6973;SDS011;3527;52.376;8.990;2024-02-26T08:40:38;4.87;;;3.30;;
6973;SDS011;3527;52.376;8.990;2024-02-26T08:43:05;4.60;;;3.70;;
6973;SDS011;3527;52.376;8.990;2024-02-26T08:45:31;5.63;;;3.40;;
6973;SDS011;3527;52.376;8.990;2024-02-26T08:47:58;5.77;;;3.60;;
6973;SDS011;3527;52.376;8.990;2024-02-26T08:50:26;5.10;;;3.43;;
6973;SDS011;3527;52.376;8.990;2024-02-26T08:52:53;4.30;;;3.33;;
6973;SDS011;3527;52.376;8.990;2024-02-26T08:55:20;5.27;;;3.50;;
6973;SDS011;3527;52.376;8.990;2024-02-26T08:57:47;4.70;;;3.40;;
6973;SDS011;3527;52.376;8.990;2024-02-26T09:00:15;4.77;;;3.60;;
6973;SDS011;3527;52.376;8.990;2024-02-26T09:02:47;5.03;;;3.63;;
6973;SDS011;3527;52.376;8.990;2024-02-26T09:05:14;4.07;;;3.23;;
6973;SDS011;3527;52.376;8.990;2024-02-26T09:07:40;6.67;;;3.60;;
6973;SDS011;3527;52.376;8.990;2024-02-26T09:10:07;5.60;;;3.70;;
6973;SDS011;3527;52.376;8.990;2024-02-26T09:12:37;5.00;;;3.67;;
6973;SDS011;3527;52.376;8.990;2024-02-26T09:15:05;5.53;;;3.47;;
6973;SDS011;3527;52.376;8.990;2024-02-26T09:17:32;3.73;;;3.10;;
6973;SDS011;3527;52.376;8.990;2024-02-26T09:19:59;4.53;;;3.40;;
6973;SDS011;3527;52.376;8.990;2024-02-26T09:22:26;4.57;;;3.30;;
6973;SDS011;3527;52.376;8.990;2024-02-26T09:24:53;5.03;;;3.47;;
6973;SDS011;3527;52.376;8.990;2024-02-26T09:27:20;4.87;;;3.60;;
6973;SDS011;3527;52.376;8.990;2024-02-26T09:29:48;3.47;;;3.10;;
6973;SDS011;3527;52.376;8.990;2024-02-26T09:32:15;4.37;;;3.13;;
6973;SDS011;3527;52.376;8.990;2024-02-26T09:34:42;4.67;;;3.00;;
6973;SDS011;3527;52.376;8.990;2024-02-26T09:37:09;4.17;;;3.10;;
6973;SDS011;3527;52.376;8.990;2024-02-26T09:39:46;4.07;;;2.90;;
6973;SDS011;3527;52.376;8.990;2024-02-26T09:42:13;5.47;;;3.50;;
6973;SDS011;3527;52.376;8.990;2024-02-26T09:44:40;5.93;;;3.47;;
6973;SDS011;3527;52.376;8.990;2024-02-26T09:47:10;4.27;;;2.90;;
6973;SDS011;3527;52.376;8.990;2024-02-26T09:49:37;4.83;;;3.27;;
6973;SDS011;3527;52.376;8.990;2024-02-26T09:52:05;4.73;;;2.73;;
6973;SDS011;3527;52.376;8.990;2024-02-26T09:54:32;3.67;;;3.00;;
6973;SDS011;3527;52.376;8.990;2024-02-26T09:57:00;4.30;;;2.90;;
6973;SDS011;3527;52.376;8.990;2024-02-26T09:59:41;3.73;;;2.63;;
6973;SDS011;3527;52.376;8.990;2024-02-26T10:02:12;4.00;;;2.90;;
6973;SDS011;3527;52.376;8.990;2024-02-26T10:04:39;5.07;;;2.80;;
6973;SDS011;3527;52.376;8.990;2024-02-26T10:07:10;5.13;;;2.77;;
6973;SDS011;3527;52.376;8.990;2024-02-26T10:09:37;3.67;;;3.10;;
6973;SDS011;3527;52.376;8.990;2024-02-26T10:12:04;3.63;;;2.60;;
6973;SDS011;3527;52.376;8.990;2024-02-26T10:14:31;4.23;;;2.77;;
6973;SDS011;3527;52.376;8.990;2024-02-26T10:16:58;6.27;;;2.70;;
6973;SDS011;3527;52.376;8.990;2024-02-26T10:19:28;4.83;;;3.13;;
6973;SDS011;3527;52.376;8.990;2024-02-26T10:21:56;4.03;;;3.07;;
6973;SDS011;3527;52.376;8.990;2024-02-26T10:24:24;3.70;;;2.53;;
6973;SDS011;3527;52.376;8.990;2024-02-26T10:26:52;3.67;;;2.57;;
6973;SDS011;3527;52.376;8.990;2024-02-26T10:29:19;2.80;;;2.23;;
6973;SDS011;3527;52.376;8.990;2024-02-26T10:31:46;2.47;;;2.27;;
6973;SDS011;3527;52.376;8.990;2024-02-26T10:34:15;5.13;;;2.23;;
6973;SDS011;3527;52.376;8.990;2024-02-26T10:36:42;4.70;;;2.30;;
6973;SDS011;3527;52.376;8.990;2024-02-26T10:39:19;3.40;;;2.53;;
6973;SDS011;3527;52.376;8.990;2024-02-26T10:41:46;2.40;;;1.80;;
6973;SDS011;3527;52.376;8.990;2024-02-26T10:44:13;2.43;;;2.20;;
6973;SDS011;3527;52.376;8.990;2024-02-26T10:46:44;3.57;;;2.63;;
6973;SDS011;3527;52.376;8.990;2024-02-26T10:49:16;3.87;;;2.20;;
6973;SDS011;3527;52.376;8.990;2024-02-26T10:51:45;3.13;;;2.23;;
6973;SDS011;3527;52.376;8.990;2024-02-26T10:54:17;3.77;;;2.13;;
6973;SDS011;3527;52.376;8.990;2024-02-26T10:56:44;3.67;;;2.30;;
6973;SDS011;3527;52.376;8.990;2024-02-26T10:59:12;3.33;;;2.50;;
6973;SDS011;3527;52.376;8.990;2024-02-26T11:01:40;4.13;;;2.40;;
6973;SDS011;3527;52.376;8.990;2024-02-26T11:04:08;2.83;;;2.20;;
6973;SDS011;3527;52.376;8.990;2024-02-26T11:06:35;2.90;;;2.27;;
6973;SDS011;3527;52.376;8.990;2024-02-26T11:09:02;2.50;;;2.20;;
6973;SDS011;3527;52.376;8.990;2024-02-26T11:11:30;3.00;;;2.17;;
6973;SDS011;3527;52.376;8.990;2024-02-26T11:13:58;4.13;;;2.27;;
6973;SDS011;3527;52.376;8.990;2024-02-26T11:16:25;3.57;;;2.20;;
6973;SDS011;3527;52.376;8.990;2024-02-26T11:18:52;2.80;;;2.37;;
6973;SDS011;3527;52.376;8.990;2024-02-26T11:21:22;3.07;;;2.27;;
6973;SDS011;3527;52.376;8.990;2024-02-26T11:24:05;2.90;;;2.50;;
6973;SDS011;3527;52.376;8.990;2024-02-26T11:26:34;3.47;;;2.30;;
6973;SDS011;3527;52.376;8.990;2024-02-26T11:29:03;5.07;;;2.40;;
6973;SDS011;3527;52.376;8.990;2024-02-26T11:31:30;3.30;;;2.40;;
6973;SDS011;3527;52.376;8.990;2024-02-26T11:33:59;3.40;;;2.50;;
6973;SDS011;3527;52.376;8.990;2024-02-26T11:36:26;2.60;;;2.17;;
6973;SDS011;3527;52.376;8.990;2024-02-26T11:38:53;3.17;;;2.10;;
6973;SDS011;3527;52.376;8.990;2024-02-26T11:41:21;3.90;;;2.30;;
6973;SDS011;3527;52.376;8.990;2024-02-26T11:43:58;3.33;;;2.37;;
6973;SDS011;3527;52.376;8.990;2024-02-26T11:46:38;2.67;;;2.07;;
6973;SDS011;3527;52.376;8.990;2024-02-26T11:49:51;4.37;;;2.50;;
6973;SDS011;3527;52.376;8.990;2024-02-26T11:51:56;4.13;;;2.30;;
6973;SDS011;3527;52.376;8.990;2024-02-26T11:57:19;3.30;;;2.10;;
6973;SDS011;3527;52.376;8.990;2024-02-26T11:59:46;2.63;;;2.10;;
6973;SDS011;3527;52.376;8.990;2024-02-26T12:02:19;2.57;;;2.13;;
6973;SDS011;3527;52.376;8.990;2024-02-26T12:04:59;3.00;;;2.27;;
6973;SDS011;3527;52.376;8.990;2024-02-26T12:07:26;3.53;;;2.40;;
6973;SDS011;3527;52.376;8.990;2024-02-26T12:09:53;3.03;;;2.20;;
6973;SDS011;3527;52.376;8.990;2024-02-26T12:12:39;2.40;;;2.07;;
6973;SDS011;3527;52.376;8.990;2024-02-26T12:15:06;3.60;;;2.20;;
6973;SDS011;3527;52.376;8.990;2024-02-26T12:17:35;4.40;;;2.03;;
6973;SDS011;3527;52.376;8.990;2024-02-26T12:20:09;4.63;;;2.50;;
6973;SDS011;3527;52.376;8.990;2024-02-26T12:22:37;3.53;;;2.47;;
6973;SDS011;3527;52.376;8.990;2024-02-26T12:25:06;3.30;;;2.70;;
6973;SDS011;3527;52.376;8.990;2024-02-26T12:27:36;5.50;;;2.57;;
6973;SDS011;3527;52.376;8.990;2024-02-26T12:30:03;4.23;;;2.43;;
6973;SDS011;3527;52.376;8.990;2024-02-26T12:32:30;3.53;;;2.23;;
6973;SDS011;3527;52.376;8.990;2024-02-26T12:34:57;5.37;;;2.53;;
6973;SDS011;3527;52.376;8.990;2024-02-26T12:37:23;2.87;;;2.37;;
6973;SDS011;3527;52.376;8.990;2024-02-26T12:39:50;3.13;;;2.23;;
6973;SDS011;3527;52.376;8.990;2024-02-26T12:42:17;4.17;;;2.70;;
6973;SDS011;3527;52.376;8.990;2024-02-26T12:44:47;3.20;;;2.20;;
6973;SDS011;3527;52.376;8.990;2024-02-26T12:47:13;2.80;;;1.97;;
6973;SDS011;3527;52.376;8.990;2024-02-26T12:49:43;3.10;;;2.20;;
6973;SDS011;3527;52.376;8.990;2024-02-26T12:52:12;2.70;;;1.90;;
6973;SDS011;3527;52.376;8.990;2024-02-26T12:54:39;3.00;;;2.10;;
6973;SDS011;3527;52.376;8.990;2024-02-26T12:57:08;4.13;;;2.10;;
6973;SDS011;3527;52.376;8.990;2024-02-26T12:59:35;3.63;;;2.50;;
6973;SDS011;3527;52.376;8.990;2024-02-26T13:02:02;3.03;;;2.10;;
6973;SDS011;3527;52.376;8.990;2024-02-26T13:04:33;2.40;;;2.00;;
6973;SDS011;3527;52.376;8.990;2024-02-26T13:07:02;5.40;;;2.50;;
6973;SDS011;3527;52.376;8.990;2024-02-26T13:09:34;3.80;;;1.93;;
6973;SDS011;3527;52.376;8.990;2024-02-26T13:12:04;3.73;;;2.27;;
6973;SDS011;3527;52.376;8.990;2024-02-26T13:14:32;2.83;;;2.20;;
6973;SDS011;3527;52.376;8.990;2024-02-26T13:17:01;4.37;;;1.83;;
6973;SDS011;3527;52.376;8.990;2024-02-26T13:19:27;3.40;;;1.90;;
6973;SDS011;3527;52.376;8.990;2024-02-26T13:21:54;3.47;;;2.30;;
6973;SDS011;3527;52.376;8.990;2024-02-26T13:24:22;4.07;;;2.30;;
6973;SDS011;3527;52.376;8.990;2024-02-26T13:26:55;3.80;;;2.23;;
6973;SDS011;3527;52.376;8.990;2024-02-26T13:29:22;3.37;;;2.20;;
6973;SDS011;3527;52.376;8.990;2024-02-26T13:31:53;2.67;;;1.87;;
6973;SDS011;3527;52.376;8.990;2024-02-26T13:34:26;3.33;;;2.43;;
6973;SDS011;3527;52.376;8.990;2024-02-26T13:36:54;2.63;;;2.07;;
6973;SDS011;3527;52.376;8.990;2024-02-26T13:39:21;2.73;;;2.13;;
6973;SDS011;3527;52.376;8.990;2024-02-26T13:41:48;3.47;;;2.10;;
6973;SDS011;3527;52.376;8.990;2024-02-26T13:44:15;3.73;;;1.90;;
6973;SDS011;3527;52.376;8.990;2024-02-26T13:46:41;3.37;;;2.20;;
6973;SDS011;3527;52.376;8.990;2024-02-26T13:49:09;2.77;;;2.10;;
6973;SDS011;3527;52.376;8.990;2024-02-26T13:51:35;2.57;;;1.70;;
6973;SDS011;3527;52.376;8.990;2024-02-26T13:54:05;5.27;;;2.80;;
6973;SDS011;3527;52.376;8.990;2024-02-26T13:56:32;3.07;;;2.33;;
6973;SDS011;3527;52.376;8.990;2024-02-26T13:58:59;1.83;;;1.50;;
6973;SDS011;3527;52.376;8.990;2024-02-26T14:01:26;1.70;;;1.20;;
6973;SDS011;3527;52.376;8.990;2024-02-26T14:03:52;2.90;;;1.70;;
6973;SDS011;3527;52.376;8.990;2024-02-26T14:06:22;3.57;;;1.60;;
6973;SDS011;3527;52.376;8.990;2024-02-26T14:08:49;2.10;;;1.30;;
6973;SDS011;3527;52.376;8.990;2024-02-26T14:11:15;2.37;;;1.50;;
6973;SDS011;3527;52.376;8.990;2024-02-26T14:13:42;1.60;;;1.20;;
6973;SDS011;3527;52.376;8.990;2024-02-26T14:16:11;2.70;;;1.40;;
6973;SDS011;3527;52.376;8.990;2024-02-26T14:18:40;1.90;;;1.13;;
6973;SDS011;3527;52.376;8.990;2024-02-26T14:21:07;2.90;;;1.40;;
6973;SDS011;3527;52.376;8.990;2024-02-26T14:23:34;1.83;;;1.30;;
6973;SDS011;3527;52.376;8.990;2024-02-26T14:26:01;2.73;;;1.33;;
6973;SDS011;3527;52.376;8.990;2024-02-26T14:28:28;2.43;;;1.27;;
6973;SDS011;3527;52.376;8.990;2024-02-26T14:31:02;1.73;;;1.20;;
6973;SDS011;3527;52.376;8.990;2024-02-26T14:33:30;2.80;;;1.10;;
6973;SDS011;3527;52.376;8.990;2024-02-26T14:35:57;2.03;;;1.27;;
6973;SDS011;3527;52.376;8.990;2024-02-26T14:38:24;1.80;;;1.20;;
6973;SDS011;3527;52.376;8.990;2024-02-26T14:40:51;2.77;;;1.37;;
6973;SDS011;3527;52.376;8.990;2024-02-26T14:43:18;2.37;;;1.40;;
6973;SDS011;3527;52.376;8.990;2024-02-26T14:45:44;1.97;;;1.17;;
6973;SDS011;3527;52.376;8.990;2024-02-26T14:48:11;2.00;;;1.47;;
6973;SDS011;3527;52.376;8.990;2024-02-26T14:50:38;1.40;;;1.07;;
6973;SDS011;3527;52.376;8.990;2024-02-26T14:53:05;2.13;;;1.10;;
6973;SDS011;3527;52.376;8.990;2024-02-26T14:55:32;2.03;;;0.90;;
6973;SDS011;3527;52.376;8.990;2024-02-26T14:57:59;3.37;;;1.40;;
6973;SDS011;3527;52.376;8.990;2024-02-26T15:00:26;2.43;;;1.10;;
6973;SDS011;3527;52.376;8.990;2024-02-26T15:02:53;1.70;;;0.90;;
6973;SDS011;3527;52.376;8.990;2024-02-26T15:05:21;2.53;;;1.00;;
6973;SDS011;3527;52.376;8.990;2024-02-26T15:07:48;1.63;;;0.90;;
6973;SDS011;3527;52.376;8.990;2024-02-26T15:10:15;1.50;;;1.13;;
6973;SDS011;3527;52.376;8.990;2024-02-26T15:12:42;1.63;;;0.90;;
6973;SDS011;3527;52.376;8.990;2024-02-26T15:15:09;1.40;;;0.80;;
6973;SDS011;3527;52.376;8.990;2024-02-26T15:17:36;1.40;;;1.00;;
6973;SDS011;3527;52.376;8.990;2024-02-26T15:20:03;1.80;;;0.70;;
6973;SDS011;3527;52.376;8.990;2024-02-26T15:22:30;1.53;;;0.90;;